KRKP/RKP METAR and TAF weather

Enter ICAO airport designator
Station Type Date Time Source
KRKP METAR 2021/09/16 21:53 UTC NOAA

KRKP 162153Z AUTO 11008KT 8SM CLR 31/24 A2979 RMK AO2 SLP089 T03060239


Station Type Date Time Source
KRKP Decoded METAR 2021/09/16 21:53 UTC NOAA

ROCKPORT ARANSAS COUNTY AIRPORT , TX, United States (KRKP) 28-05N 97-03W 6M
Sep 16, 2021 - 05:53 PM EDT / 2021.09.16 2153 UTC
Wind: from the ESE (110 degrees) at 9 MPH (8 KT):0
Visibility: 8 mile(s):0
Sky conditions: clear
Temperature: 87.1 F (30.6 C)
Heat index: 96.4 F (35.8 C):1
Dew Point: 75.0 F (23.9 C)
Relative Humidity: 67%
Pressure (altimeter): 29.79 in. Hg (1008 hPa)
ob: KRKP 162153Z AUTO 11008KT 8SM CLR 31/24 A2979 RMK AO2 SLP089 T03060239
cycle: 22

Station Type Date Time Source
KRKP TAF UTC NOAA

Error!

Example: see airport list